createdAt,value
2022-12-31T00:01:42.364Z,100354.16
2022-12-31T00:04:09.019Z,100355.00
2022-12-31T00:06:36.289Z,100345.91
2022-12-31T00:09:05.637Z,100353.84
2022-12-31T00:11:33.439Z,100350.13
2022-12-31T00:14:00.314Z,100350.13
2022-12-31T00:16:29.834Z,100366.00
2022-12-31T00:18:59.404Z,100366.88
2022-12-31T00:21:27.359Z,100368.56
2022-12-31T00:23:54.025Z,100370.28
2022-12-31T00:26:22.835Z,100373.81
2022-12-31T00:28:49.536Z,100373.66
2022-12-31T00:31:17.948Z,100370.09
2022-12-31T00:33:45.457Z,100369.09
2022-12-31T00:36:15.012Z,100371.66
2022-12-31T00:38:43.518Z,100372.50
2022-12-31T00:41:11.112Z,100366.25
2022-12-31T00:43:37.858Z,100361.00
2022-12-31T00:46:05.880Z,100363.03
2022-12-31T00:48:33.569Z,100375.81
2022-12-31T00:51:01.154Z,100371.41
2022-12-31T00:53:29.852Z,100378.84
2022-12-31T00:56:00.838Z,100386.25
2022-12-31T00:58:27.588Z,100388.94
2022-12-31T01:00:54.237Z,100402.44
2022-12-31T01:03:20.880Z,100412.41
2022-12-31T01:05:47.531Z,100417.66
2022-12-31T01:08:14.211Z,100422.91
2022-12-31T01:10:42.170Z,100413.78
2022-12-31T01:13:09.348Z,100407.22
2022-12-31T01:15:38.012Z,100413.50
2022-12-31T01:18:05.742Z,100410.59
2022-12-31T01:20:36.430Z,100414.00
2022-12-31T01:23:03.127Z,100412.84
2022-12-31T01:25:29.748Z,100416.25
2022-12-31T01:27:57.717Z,100420.47
2022-12-31T01:30:24.356Z,100421.19
2022-12-31T01:32:51.027Z,100427.25
2022-12-31T01:35:17.640Z,100422.56
2022-12-31T01:37:44.519Z,100435.06
2022-12-31T01:40:11.560Z,100441.00
2022-12-31T01:42:38.089Z,100440.84
2022-12-31T01:45:10.793Z,100453.19
2022-12-31T01:47:41.844Z,100442.22
2022-12-31T01:50:14.600Z,100450.84
2022-12-31T01:52:44.975Z,100448.69
2022-12-31T01:55:16.283Z,100434.16
2022-12-31T01:57:43.874Z,100440.09
2022-12-31T02:00:12.772Z,100441.81
2022-12-31T02:02:39.734Z,100450.44
2022-12-31T02:05:16.265Z,100452.81
2022-12-31T02:07:44.424Z,100451.66
2022-12-31T02:10:11.211Z,100450.50
2022-12-31T02:12:37.853Z,100459.31
2022-12-31T02:15:05.638Z,100450.19
2022-12-31T02:17:41.743Z,100438.53
2022-12-31T02:20:40.251Z,100437.38
2022-12-31T02:23:34.401Z,100451.56
2022-12-31T02:26:31.217Z,100442.44
2022-12-31T02:29:38.228Z,100442.31
2022-12-31T02:32:12.474Z,100442.13
2022-12-31T02:34:46.143Z,100445.53
2022-12-31T02:37:14.303Z,100432.72
2022-12-31T02:39:43.035Z,100443.19
2022-12-31T02:42:10.614Z,100443.19
2022-12-31T02:44:38.541Z,100438.47
2022-12-31T02:47:19.085Z,100436.59
2022-12-31T02:50:00.070Z,100440.16
2022-12-31T02:52:38.652Z,100447.28
2022-12-31T02:55:11.435Z,100441.53
2022-12-31T02:57:42.364Z,100435.97
2022-12-31T03:00:12.812Z,100428.72
2022-12-31T03:02:43.753Z,100430.41
2022-12-31T03:05:12.475Z,100427.53
2022-12-31T03:07:40.843Z,100436.16
2022-12-31T03:10:08.694Z,100426.72
2022-12-31T03:12:36.076Z,100419.28
2022-12-31T03:15:02.697Z,100428.09
2022-12-31T03:17:29.329Z,100421.00
2022-12-31T03:19:57.339Z,100429.78
2022-12-31T03:22:24.166Z,100426.91
2022-12-31T03:24:50.808Z,100425.91
2022-12-31T03:27:17.397Z,100433.00
2022-12-31T03:29:44.034Z,100435.56
2022-12-31T03:32:10.599Z,100423.56
2022-12-31T03:34:37.165Z,100426.09
2022-12-31T03:37:05.246Z,100428.47
2022-12-31T03:39:31.887Z,100427.31
2022-12-31T03:41:58.493Z,100419.72
2022-12-31T03:44:25.111Z,100414.81
2022-12-31T03:46:51.660Z,100406.38
2022-12-31T03:49:18.256Z,100398.06
2022-12-31T03:51:44.869Z,100396.72
2022-12-31T03:54:12.847Z,100384.06
2022-12-31T03:56:39.402Z,100385.59
2022-12-31T03:59:06.024Z,100397.09
2022-12-31T04:01:32.699Z,100404.06
2022-12-31T04:03:59.655Z,100394.72
2022-12-31T04:06:26.293Z,100399.81
2022-12-31T04:08:52.902Z,100408.63
2022-12-31T04:11:22.265Z,100397.59
2022-12-31T04:13:48.856Z,100392.03
2022-12-31T04:16:15.472Z,100398.16
2022-12-31T04:18:42.129Z,100397.97
2022-12-31T04:21:08.794Z,100400.50
2022-12-31T04:23:35.544Z,100404.06
2022-12-31T04:26:02.116Z,100409.28
2022-12-31T04:28:30.038Z,100397.16
2022-12-31T04:30:56.716Z,100392.41
2022-12-31T04:33:23.305Z,100394.09
2022-12-31T04:35:49.937Z,100397.47
2022-12-31T04:38:16.551Z,100388.34
2022-12-31T04:40:45.106Z,100376.84
2022-12-31T04:43:11.728Z,100376.50
2022-12-31T04:45:39.762Z,100359.25
2022-12-31T04:48:06.650Z,100354.47
2022-12-31T04:50:33.281Z,100353.47
2022-12-31T04:52:59.867Z,100351.78
2022-12-31T04:55:26.431Z,100345.50
2022-12-31T04:57:53.042Z,100342.66
2022-12-31T05:00:19.866Z,100345.34
2022-12-31T05:02:48.029Z,100345.19
2022-12-31T05:05:14.883Z,100337.91
2022-12-31T05:07:41.476Z,100358.53
2022-12-31T05:10:09.030Z,100362.09
2022-12-31T05:12:35.654Z,100363.66
2022-12-31T05:15:02.333Z,100362.59
2022-12-31T05:17:28.954Z,100368.72
2022-12-31T05:19:56.942Z,100361.25
2022-12-31T05:22:23.636Z,100357.53
2022-12-31T05:24:50.606Z,100344.69
2022-12-31T05:27:17.272Z,100356.19
2022-12-31T05:29:43.843Z,100363.97
2022-12-31T05:32:10.529Z,100350.44
2022-12-31T05:34:37.079Z,100355.66
2022-12-31T05:37:05.141Z,100348.38
2022-12-31T05:39:31.728Z,100342.13
2022-12-31T05:41:58.286Z,100332.97
2022-12-31T05:44:24.998Z,100322.16
2022-12-31T05:46:51.726Z,100314.03
2022-12-31T05:49:18.339Z,100317.59
2022-12-31T05:51:45.046Z,100308.59
2022-12-31T05:54:12.998Z,100314.03
2022-12-31T05:56:40.445Z,100307.59
2022-12-31T05:59:06.996Z,100294.91
2022-12-31T06:01:33.661Z,100293.84
2022-12-31T06:04:00.767Z,100293.84
2022-12-31T06:06:27.623Z,100280.31
2022-12-31T06:08:54.305Z,100299.28
2022-12-31T06:11:22.381Z,100293.84
2022-12-31T06:13:49.044Z,100290.31
2022-12-31T06:16:15.828Z,100298.44
2022-12-31T06:18:42.446Z,100293.03
2022-12-31T06:21:09.363Z,100291.84
2022-12-31T06:23:35.971Z,100284.56
2022-12-31T06:26:02.668Z,100285.41
2022-12-31T06:28:30.789Z,100277.44
2022-12-31T06:31:00.015Z,100296.25
2022-12-31T06:33:26.763Z,100297.91
2022-12-31T06:35:55.832Z,100297.75
2022-12-31T06:38:22.569Z,100295.03
2022-12-31T06:40:49.223Z,100281.31
2022-12-31T06:43:15.873Z,100272.84
2022-12-31T06:45:43.851Z,100272.69
2022-12-31T06:48:10.542Z,100275.03
2022-12-31T06:50:37.129Z,100278.44
2022-12-31T06:53:03.763Z,100276.25
2022-12-31T06:55:31.201Z,100262.34
2022-12-31T06:57:58.367Z,100266.38
2022-12-31T07:00:25.586Z,100265.88
2022-12-31T07:03:16.930Z,100256.56
2022-12-31T07:05:47.035Z,100250.78
2022-12-31T07:08:25.976Z,100258.38
2022-12-31T07:10:58.709Z,100248.03
2022-12-31T07:13:52.314Z,100254.78
2022-12-31T07:16:32.734Z,100244.41
2022-12-31T07:19:11.129Z,100252.22
2022-12-31T07:21:40.286Z,100251.88
2022-12-31T07:24:08.443Z,100255.06
2022-12-31T07:26:54.266Z,100260.13
2022-12-31T07:29:33.373Z,100249.78
2022-12-31T07:32:09.888Z,100249.22
2022-12-31T07:34:47.373Z,100252.25
2022-12-31T07:37:20.262Z,100247.31
2022-12-31T07:40:02.270Z,100252.41
2022-12-31T07:42:36.395Z,100256.44
2022-12-31T07:45:14.103Z,100265.75
2022-12-31T07:47:41.295Z,100271.44
2022-12-31T07:50:15.108Z,100281.59
2022-12-31T07:52:42.253Z,100287.34
2022-12-31T07:55:09.047Z,100284.25
2022-12-31T07:57:41.918Z,100276.59
2022-12-31T08:00:13.488Z,100289.63
2022-12-31T08:03:03.707Z,100285.19
2022-12-31T08:05:39.163Z,100299.53
2022-12-31T08:08:18.300Z,100294.41
2022-12-31T08:10:53.591Z,100311.84
2022-12-31T08:13:21.075Z,100301.44
2022-12-31T08:15:48.244Z,100289.22
2022-12-31T08:18:15.396Z,100294.31
2022-12-31T08:20:55.589Z,100290.38
2022-12-31T08:23:28.364Z,100300.91
2022-12-31T08:26:11.259Z,100300.53
2022-12-31T08:28:56.613Z,100306.44
2022-12-31T08:31:30.603Z,100300.44
2022-12-31T08:34:06.219Z,100300.06
2022-12-31T08:36:45.119Z,100303.09
2022-12-31T08:39:20.047Z,100295.06
2022-12-31T08:41:50.392Z,100292.81
2022-12-31T08:44:25.705Z,100298.53
2022-12-31T08:47:00.468Z,100305.78
2022-12-31T08:49:28.490Z,100301.47
2022-12-31T08:51:57.669Z,100299.00
2022-12-31T08:54:25.253Z,100305.97
2022-12-31T08:56:57.186Z,100311.69
2022-12-31T08:59:36.664Z,100296.88
2022-12-31T09:02:32.374Z,100315.19
2022-12-31T09:05:11.384Z,100307.94
2022-12-31T09:07:44.073Z,100310.97
2022-12-31T09:10:20.929Z,100308.53
2022-12-31T09:12:54.621Z,100314.88
2022-12-31T09:15:26.520Z,100303.44
2022-12-31T09:17:53.881Z,100302.88
2022-12-31T09:20:24.607Z,100302.31
2022-12-31T09:22:54.008Z,100299.03
2022-12-31T09:25:22.389Z,100296.56
2022-12-31T09:27:59.682Z,100297.91
2022-12-31T09:30:30.935Z,100311.81
2022-12-31T09:33:04.980Z,100312.88
2022-12-31T09:35:38.372Z,100320.50
2022-12-31T09:38:15.270Z,100327.63
2022-12-31T09:41:12.223Z,100335.41
2022-12-31T09:44:24.042Z,100341.13
2022-12-31T09:47:22.607Z,100333.22
2022-12-31T09:50:20.627Z,100338.28
2022-12-31T09:53:29.022Z,100346.47
2022-12-31T09:56:04.173Z,100350.69
2022-12-31T09:58:41.949Z,100360.56
2022-12-31T10:01:19.689Z,100367.88
2022-12-31T10:04:11.583Z,100366.19
2022-12-31T10:06:46.744Z,100367.22
2022-12-31T10:09:30.742Z,100370.16
2022-12-31T10:12:16.244Z,100364.22
2022-12-31T10:14:56.936Z,100374.66
2022-12-31T10:17:34.761Z,100393.06
2022-12-31T10:20:27.112Z,100392.59
2022-12-31T10:23:23.256Z,100400.28
2022-12-31T10:26:13.972Z,100406.13
2022-12-31T10:28:49.524Z,100403.78
2022-12-31T10:31:37.555Z,100408.75
2022-12-31T10:34:14.200Z,100408.09
2022-12-31T10:36:55.344Z,100411.84
2022-12-31T10:39:36.724Z,100415.41
2022-12-31T10:42:49.038Z,100421.72
2022-12-31T10:45:50.682Z,100428.84
2022-12-31T10:48:50.206Z,100414.19
2022-12-31T10:51:48.028Z,100415.88
2022-12-31T10:54:37.779Z,100426.78
2022-12-31T10:57:40.075Z,100427.78
2022-12-31T11:00:16.848Z,100423.19
2022-12-31T11:03:31.200Z,100420.47
2022-12-31T11:06:41.756Z,100435.97
2022-12-31T11:09:50.036Z,100447.22
2022-12-31T11:12:37.496Z,100444.91
2022-12-31T11:15:18.466Z,100451.38
2022-12-31T11:17:58.576Z,100439.63
2022-12-31T11:20:37.404Z,100433.34
2022-12-31T11:23:18.047Z,100426.69
2022-12-31T11:26:01.394Z,100415.41
2022-12-31T11:29:08.636Z,100408.56
2022-12-31T11:31:54.682Z,100384.53
2022-12-31T11:34:49.423Z,100385.00
2022-12-31T11:37:32.194Z,100380.03
2022-12-31T11:40:15.028Z,100376.06
2022-12-31T11:42:50.629Z,100370.06
2022-12-31T11:45:26.981Z,100372.88
2022-12-31T11:51:10.131Z,100383.09
2022-12-31T11:54:09.672Z,100382.50
2022-12-31T11:56:40.832Z,100367.47
2022-12-31T11:59:15.728Z,100364.34
2022-12-31T12:01:53.020Z,100351.19
2022-12-31T12:04:19.687Z,100354.19
2022-12-31T12:06:46.301Z,100353.41
2022-12-31T12:09:15.542Z,100349.25
2022-12-31T12:11:43.531Z,100346.81
2022-12-31T12:14:20.379Z,100349.41
2022-12-31T12:16:47.192Z,100352.34
2022-12-31T12:19:17.745Z,100353.69
2022-12-31T12:21:45.959Z,100352.25
2022-12-31T12:24:20.570Z,100357.94
2022-12-31T12:26:49.139Z,100368.94
2022-12-31T12:29:18.358Z,100347.16
2022-12-31T12:31:55.273Z,100342.19
2022-12-31T12:34:24.861Z,100349.78
2022-12-31T12:36:51.586Z,100345.63
2022-12-31T12:39:21.216Z,100341.44
2022-12-31T12:41:59.771Z,100341.88
2022-12-31T12:44:26.600Z,100347.78
2022-12-31T12:46:53.757Z,100340.25
2022-12-31T12:49:24.035Z,100342.78
2022-12-31T12:52:15.715Z,100348.88
2022-12-31T12:55:08.580Z,100343.03
2022-12-31T12:57:46.242Z,100330.47
2022-12-31T13:00:19.199Z,100339.94
2022-12-31T13:03:23.355Z,100340.78
2022-12-31T13:06:13.960Z,100343.31
2022-12-31T13:08:57.207Z,100340.81
2022-12-31T13:11:32.684Z,100346.72
2022-12-31T13:14:10.519Z,100358.09
2022-12-31T13:16:43.395Z,100356.00
2022-12-31T13:19:18.446Z,100360.41
2022-12-31T13:21:55.070Z,100365.03
2022-12-31T13:24:31.883Z,100361.06
2022-12-31T13:27:09.684Z,100365.47
2022-12-31T13:29:39.576Z,100355.22
2022-12-31T13:32:09.029Z,100357.72
2022-12-31T13:34:40.063Z,100369.09
2022-12-31T13:37:23.326Z,100374.16
2022-12-31T13:39:56.828Z,100390.34
2022-12-31T13:42:25.515Z,100396.63
2022-12-31T13:44:59.199Z,100403.41
2022-12-31T13:47:33.099Z,100421.25
2022-12-31T13:50:14.148Z,100435.09
2022-12-31T13:52:46.231Z,100444.34
2022-12-31T13:55:18.289Z,100441.63
2022-12-31T13:57:49.140Z,100451.88
2022-12-31T14:00:22.782Z,100457.34
2022-12-31T14:02:56.564Z,100459.91
2022-12-31T14:05:30.689Z,100474.00
2022-12-31T14:07:59.979Z,100465.59
2022-12-31T14:10:35.789Z,100485.53
2022-12-31T14:13:11.834Z,100489.34
2022-12-31T14:15:46.786Z,100485.94
2022-12-31T14:18:21.699Z,100497.28
2022-12-31T14:20:53.607Z,100497.66
2022-12-31T14:23:38.509Z,100489.88
2022-12-31T14:26:11.204Z,100494.69
2022-12-31T14:28:46.849Z,100495.91
2022-12-31T14:31:27.201Z,100497.16
2022-12-31T14:34:02.155Z,100498.63
2022-12-31T14:36:40.710Z,100504.44
2022-12-31T14:39:25.848Z,100518.50
2022-12-31T14:42:04.023Z,100517.88
2022-12-31T14:44:46.078Z,100514.47
2022-12-31T14:47:26.932Z,100517.78
2022-12-31T14:50:04.197Z,100519.22
2022-12-31T14:52:32.851Z,100529.03
2022-12-31T14:55:01.941Z,100533.41
2022-12-31T14:57:54.439Z,100532.09
2022-12-31T15:00:32.651Z,100528.88
2022-12-31T15:03:02.734Z,100527.00
2022-12-31T15:05:31.086Z,100536.44
2022-12-31T15:08:24.372Z,100530.97
2022-12-31T15:11:05.873Z,100527.22
2022-12-31T15:13:43.670Z,100527.22
2022-12-31T15:16:24.877Z,100525.53
2022-12-31T15:19:20.642Z,100528.25
2022-12-31T15:21:59.592Z,100528.44
2022-12-31T15:24:27.893Z,100531.38
2022-12-31T15:26:57.422Z,100529.69
2022-12-31T15:29:27.675Z,100524.22
2022-12-31T15:31:56.078Z,100531.38
2022-12-31T15:34:29.601Z,100529.69
2022-12-31T15:36:56.890Z,100530.53
2022-12-31T15:39:40.328Z,100526.94
2022-12-31T15:42:37.776Z,100518.31
2022-12-31T15:45:11.591Z,100517.19
2022-12-31T15:47:42.348Z,100518.63
2022-12-31T15:50:17.246Z,100521.34
2022-12-31T15:52:46.955Z,100533.28
2022-12-31T15:55:23.236Z,100522.56
2022-12-31T15:57:50.683Z,100534.31
2022-12-31T16:00:20.371Z,100534.31
2022-12-31T16:02:48.107Z,100542.50
2022-12-31T16:05:22.947Z,100547.13
2022-12-31T16:07:53.866Z,100549.00
2022-12-31T16:10:24.306Z,100545.22
2022-12-31T16:12:52.931Z,100552.38
2022-12-31T16:15:22.929Z,100552.00
2022-12-31T16:17:59.668Z,100548.22
2022-12-31T16:20:29.927Z,100557.09
2022-12-31T16:22:57.929Z,100546.81
2022-12-31T16:25:33.499Z,100552.09
2022-12-31T16:28:02.571Z,100552.94
2022-12-31T16:30:31.163Z,100547.47
2022-12-31T16:33:00.358Z,100564.69
2022-12-31T16:35:30.175Z,100563.00
2022-12-31T16:38:10.913Z,100561.75
2022-12-31T16:40:37.761Z,100563.44
2022-12-31T16:43:04.525Z,100557.59
2022-12-31T16:45:33.932Z,100558.06
2022-12-31T16:48:16.346Z,100562.28
2022-12-31T16:50:46.152Z,100570.47
2022-12-31T16:53:15.923Z,100556.84
2022-12-31T16:55:43.204Z,100564.00
2022-12-31T16:58:19.234Z,100575.94
2022-12-31T17:00:46.983Z,100583.66
2022-12-31T17:03:18.667Z,100569.19
2022-12-31T17:06:11.186Z,100570.22
2022-12-31T17:08:40.906Z,100569.19
2022-12-31T17:11:23.358Z,100572.34
2022-12-31T17:13:55.968Z,100580.34
2022-12-31T17:16:22.909Z,100568.19
2022-12-31T17:18:49.679Z,100575.34
2022-12-31T17:21:18.565Z,100570.75
2022-12-31T17:23:53.496Z,100571.59
2022-12-31T17:26:24.716Z,100575.81
2022-12-31T17:28:53.237Z,100579.22
2022-12-31T17:31:30.195Z,100586.31
2022-12-31T17:34:06.711Z,100577.09
2022-12-31T17:36:34.749Z,100585.97
2022-12-31T17:39:15.401Z,100588.69
2022-12-31T17:41:44.860Z,100590.34
2022-12-31T17:44:17.287Z,100577.56
2022-12-31T17:46:44.371Z,100577.78
2022-12-31T17:49:12.964Z,100572.94
2022-12-31T17:51:47.171Z,100577.56
2022-12-31T17:54:15.559Z,100581.34
2022-12-31T17:56:43.175Z,100594.16
2022-12-31T17:59:15.534Z,100594.78
2022-12-31T18:01:42.346Z,100592.28
2022-12-31T18:04:12.989Z,100593.09
2022-12-31T18:06:41.302Z,100593.09
2022-12-31T18:09:08.215Z,100598.53
2022-12-31T18:11:36.116Z,100590.56
2022-12-31T18:14:03.237Z,100599.97
2022-12-31T18:16:30.221Z,100591.34
2022-12-31T18:18:58.789Z,100594.47
2022-12-31T18:21:29.042Z,100594.84
2022-12-31T18:26:24.130Z,100605.03
2022-12-31T18:28:51.293Z,100614.25
2022-12-31T18:31:20.880Z,100616.31
2022-12-31T18:33:48.226Z,100615.47
2022-12-31T18:36:16.435Z,100614.63
2022-12-31T18:38:43.476Z,100615.00
2022-12-31T18:41:17.047Z,100622.16
2022-12-31T18:43:43.691Z,100611.44
2022-12-31T18:46:12.644Z,100610.78
2022-12-31T18:48:39.595Z,100620.84
2022-12-31T18:51:06.232Z,100625.47
2022-12-31T18:53:32.795Z,100615.78
2022-12-31T18:55:59.406Z,100615.28
2022-12-31T18:58:27.385Z,100618.22
2022-12-31T19:00:54.480Z,100627.44
2022-12-31T19:03:22.848Z,100616.53
2022-12-31T19:05:50.084Z,100623.88
2022-12-31T19:08:16.941Z,100632.72
2022-12-31T19:10:43.577Z,100630.00
2022-12-31T19:13:12.146Z,100621.59
2022-12-31T19:15:42.939Z,100624.53
2022-12-31T19:18:09.671Z,100630.81
2022-12-31T19:20:36.588Z,100624.31
2022-12-31T19:23:03.266Z,100623.47
2022-12-31T19:25:33.043Z,100619.91
2022-12-31T19:27:59.694Z,100627.06
2022-12-31T19:30:28.202Z,100616.16
2022-12-31T19:32:56.366Z,100609.00
2022-12-31T19:35:24.023Z,100614.84
2022-12-31T19:37:52.087Z,100615.22
2022-12-31T19:40:21.556Z,100611.78
2022-12-31T19:42:49.069Z,100607.41
2022-12-31T19:45:17.234Z,100609.47
2022-12-31T19:47:45.185Z,100608.78
2022-12-31T19:50:15.559Z,100616.31
2022-12-31T19:52:42.973Z,100600.81
2022-12-31T19:55:13.267Z,100609.00
2022-12-31T19:57:40.276Z,100618.03
2022-12-31T20:00:08.867Z,100614.44
2022-12-31T20:02:35.609Z,100616.31
2022-12-31T20:05:02.577Z,100613.78
2022-12-31T20:07:30.526Z,100618.38
2022-12-31T20:09:57.142Z,100622.16
2022-12-31T20:12:23.795Z,100624.91
2022-12-31T20:14:50.376Z,100618.78
2022-12-31T20:17:16.986Z,100628.66
2022-12-31T20:19:43.615Z,100621.50
2022-12-31T20:22:10.231Z,100618.59
2022-12-31T20:24:38.206Z,100633.06
2022-12-31T20:27:05.196Z,100624.91
2022-12-31T20:29:31.772Z,100635.81
2022-12-31T20:31:58.418Z,100632.00
2022-12-31T20:34:25.139Z,100634.94
2022-12-31T20:36:51.958Z,100626.78
2022-12-31T20:39:18.624Z,100618.78
2022-12-31T20:41:46.709Z,100607.88
2022-12-31T20:44:13.343Z,100607.47
2022-12-31T20:46:40.070Z,100599.97
2022-12-31T20:49:07.065Z,100613.22
2022-12-31T20:51:34.825Z,100627.50
2022-12-31T20:54:03.690Z,100627.16
2022-12-31T20:56:32.364Z,100625.97
2022-12-31T20:59:00.948Z,100615.88
2022-12-31T21:01:41.704Z,100616.53
2022-12-31T21:04:15.054Z,100622.84
2022-12-31T21:06:41.937Z,100612.38
2022-12-31T21:09:08.716Z,100627.50
2022-12-31T21:11:36.179Z,100628.19
2022-12-31T21:14:04.287Z,100631.38
2022-12-31T21:16:30.898Z,100635.97
2022-12-31T21:18:57.803Z,100634.09
2022-12-31T21:21:24.889Z,100615.66
2022-12-31T21:23:51.509Z,100634.78
2022-12-31T21:26:18.087Z,100629.31
2022-12-31T21:28:44.967Z,100627.22
2022-12-31T21:31:14.721Z,100623.47
2022-12-31T21:33:44.292Z,100623.47
2022-12-31T21:36:11.531Z,100641.06
2022-12-31T21:38:38.256Z,100641.88
2022-12-31T21:41:06.335Z,100655.53
2022-12-31T21:43:33.249Z,100664.78
2022-12-31T21:46:01.209Z,100645.69
2022-12-31T21:48:29.424Z,100651.13
2022-12-31T21:51:06.022Z,100642.75
2022-12-31T21:53:36.956Z,100637.09
2022-12-31T21:56:05.430Z,100629.78
2022-12-31T21:58:32.165Z,100629.78
2022-12-31T22:01:00.053Z,100627.88
2022-12-31T22:03:26.955Z,100650.56
2022-12-31T22:05:58.107Z,100653.94
2022-12-31T22:08:24.829Z,100655.81
2022-12-31T22:10:52.983Z,100650.34
2022-12-31T22:13:19.812Z,100652.44
2022-12-31T22:15:48.170Z,100659.97
2022-12-31T22:18:16.247Z,100667.13
2022-12-31T22:20:42.940Z,100674.28
2022-12-31T22:23:11.689Z,100668.81
2022-12-31T22:25:39.165Z,100670.50
2022-12-31T22:30:54.192Z,100681.69
2022-12-31T22:33:20.975Z,100678.31
2022-12-31T22:35:57.060Z,100684.78
2022-12-31T22:38:25.257Z,100686.66
2022-12-31T22:40:52.057Z,100686.66
2022-12-31T22:43:18.650Z,100690.44
2022-12-31T22:45:45.274Z,100682.25
2022-12-31T22:48:11.906Z,100685.19
2022-12-31T22:50:38.542Z,100695.06
2022-12-31T22:53:05.133Z,100692.34
2022-12-31T22:55:33.045Z,100674.28
2022-12-31T22:57:59.695Z,100685.19
2022-12-31T23:00:38.560Z,100688.94
2022-12-31T23:03:05.679Z,100683.88
2022-12-31T23:05:32.461Z,100690.53
2022-12-31T23:07:59.350Z,100691.22
2022-12-31T23:10:26.099Z,100697.50
2022-12-31T23:12:54.110Z,100701.91
2022-12-31T23:15:20.727Z,100696.66
2022-12-31T23:17:47.353Z,100695.81
2022-12-31T23:20:16.802Z,100694.28
2022-12-31T23:22:43.588Z,100695.34
2022-12-31T23:25:10.321Z,100697.22
2022-12-31T23:27:37.117Z,100702.84
2022-12-31T23:30:06.404Z,100699.28
2022-12-31T23:32:33.159Z,100700.97
2022-12-31T23:35:03.234Z,100699.28
2022-12-31T23:37:33.286Z,100701.38
2022-12-31T23:39:59.894Z,100696.94
2022-12-31T23:42:26.523Z,100703.41
2022-12-31T23:44:53.116Z,100715.34
2022-12-31T23:47:21.322Z,100724.41
2022-12-31T23:49:48.216Z,100728.19
2022-12-31T23:52:14.778Z,100715.34
2022-12-31T23:54:41.477Z,100730.06
2022-12-31T23:57:08.164Z,100738.25
2022-12-31T23:59:34.808Z,100749.16
